sensor_id;sensor_type;location;lat;lon;timestamp;pressure;altitude;pressure_sealevel;temperature;humidity
68179;BME280;69812;42.632;23.440;2023-10-19T00:00:36;95229.88;;;2.33;98.30
68179;BME280;69812;42.632;23.440;2023-10-19T00:03:05;95213.53;;;2.22;98.73
68179;BME280;69812;42.632;23.440;2023-10-19T00:05:35;95222.19;;;2.18;98.56
68179;BME280;69812;42.632;23.440;2023-10-19T00:08:01;95219.97;;;2.12;98.44
68179;BME280;69812;42.632;23.440;2023-10-19T00:10:31;95219.16;;;2.12;98.81
68179;BME280;69812;42.632;23.440;2023-10-19T00:13:03;95213.34;;;2.10;98.71
68179;BME280;69812;42.632;23.440;2023-10-19T00:15:38;95200.94;;;2.05;98.79
68179;BME280;69812;42.632;23.440;2023-10-19T00:18:14;95203.09;;;2.13;98.78
68179;BME280;69812;42.632;23.440;2023-10-19T00:20:43;95207.25;;;2.14;98.77
68179;BME280;69812;42.632;23.440;2023-10-19T00:23:12;95203.66;;;2.18;98.89
68179;BME280;69812;42.632;23.440;2023-10-19T00:25:39;95203.91;;;2.13;99.01
68179;BME280;69812;42.632;23.440;2023-10-19T00:28:09;95187.31;;;2.08;99.32
68179;BME280;69812;42.632;23.440;2023-10-19T00:30:40;95191.16;;;2.15;99.89
68179;BME280;69812;42.632;23.440;2023-10-19T00:33:08;95198.41;;;2.05;99.97
68179;BME280;69812;42.632;23.440;2023-10-19T00:35:49;95191.63;;;2.05;100.00
68179;BME280;69812;42.632;23.440;2023-10-19T00:38:40;95202.41;;;2.09;100.00
68179;BME280;69812;42.632;23.440;2023-10-19T00:41:13;95203.47;;;2.05;100.00
68179;BME280;69812;42.632;23.440;2023-10-19T00:43:44;95194.47;;;1.99;100.00
68179;BME280;69812;42.632;23.440;2023-10-19T00:46:13;95195.22;;;2.01;100.00
68179;BME280;69812;42.632;23.440;2023-10-19T00:48:55;95186.72;;;1.87;99.98
68179;BME280;69812;42.632;23.440;2023-10-19T00:51:25;95193.22;;;1.75;99.84
68179;BME280;69812;42.632;23.440;2023-10-19T00:54:04;95176.34;;;1.58;99.15
68179;BME280;69812;42.632;23.440;2023-10-19T00:56:34;95181.88;;;1.49;98.44
68179;BME280;69812;42.632;23.440;2023-10-19T00:59:03;95187.63;;;1.52;98.19
68179;BME280;69812;42.632;23.440;2023-10-19T01:01:45;95188.44;;;1.53;97.94
68179;BME280;69812;42.632;23.440;2023-10-19T01:04:14;95183.97;;;1.40;97.75
68179;BME280;69812;42.632;23.440;2023-10-19T01:06:43;95187.78;;;1.32;97.23
68179;BME280;69812;42.632;23.440;2023-10-19T01:09:12;95174.78;;;1.22;97.23
68179;BME280;69812;42.632;23.440;2023-10-19T01:11:43;95187.66;;;1.17;97.12
68179;BME280;69812;42.632;23.440;2023-10-19T01:14:19;95181.94;;;1.14;96.70
68179;BME280;69812;42.632;23.440;2023-10-19T01:16:46;95188.75;;;1.12;96.65
68179;BME280;69812;42.632;23.440;2023-10-19T01:19:13;95184.00;;;1.06;96.81
68179;BME280;69812;42.632;23.440;2023-10-19T01:21:43;95193.25;;;1.07;96.23
68179;BME280;69812;42.632;23.440;2023-10-19T01:24:12;95183.25;;;1.03;96.25
68179;BME280;69812;42.632;23.440;2023-10-19T01:26:42;95191.75;;;1.02;96.27
68179;BME280;69812;42.632;23.440;2023-10-19T01:29:07;95185.66;;;1.07;96.28
68179;BME280;69812;42.632;23.440;2023-10-19T01:31:40;95182.97;;;0.92;96.57
68179;BME280;69812;42.632;23.440;2023-10-19T01:34:17;95193.47;;;1.02;96.68
68179;BME280;69812;42.632;23.440;2023-10-19T01:36:46;95185.50;;;1.10;96.58
68179;BME280;69812;42.632;23.440;2023-10-19T01:39:15;95183.03;;;1.08;96.95
68179;BME280;69812;42.632;23.440;2023-10-19T01:41:41;95182.59;;;1.00;96.82
68179;BME280;69812;42.632;23.440;2023-10-19T01:44:07;95195.75;;;1.07;96.86
68179;BME280;69812;42.632;23.440;2023-10-19T01:46:35;95191.22;;;1.13;97.10
68179;BME280;69812;42.632;23.440;2023-10-19T01:49:05;95185.72;;;1.05;97.27
68179;BME280;69812;42.632;23.440;2023-10-19T01:51:34;95183.47;;;0.99;96.83
68179;BME280;69812;42.632;23.440;2023-10-19T01:54:04;95181.19;;;0.94;96.79
68179;BME280;69812;42.632;23.440;2023-10-19T01:56:31;95180.72;;;1.03;96.82
68179;BME280;69812;42.632;23.440;2023-10-19T01:58:58;95184.16;;;1.20;97.07
68179;BME280;69812;42.632;23.440;2023-10-19T02:01:24;95187.72;;;1.16;97.18
68179;BME280;69812;42.632;23.440;2023-10-19T02:03:53;95182.28;;;1.06;97.79
68179;BME280;69812;42.632;23.440;2023-10-19T02:06:23;95193.53;;;1.00;98.01
68179;BME280;69812;42.632;23.440;2023-10-19T02:09:01;95183.66;;;0.96;98.23
68179;BME280;69812;42.632;23.440;2023-10-19T02:11:34;95190.53;;;0.92;97.99
68179;BME280;69812;42.632;23.440;2023-10-19T02:14:03;95181.03;;;0.97;97.97
68179;BME280;69812;42.632;23.440;2023-10-19T02:16:37;95180.59;;;1.07;97.74
68179;BME280;69812;42.632;23.440;2023-10-19T02:19:03;95185.66;;;1.07;97.60
68179;BME280;69812;42.632;23.440;2023-10-19T02:21:28;95170.31;;;1.10;97.49
68179;BME280;69812;42.632;23.440;2023-10-19T02:23:59;95189.34;;;0.99;96.98
68179;BME280;69812;42.632;23.440;2023-10-19T02:26:25;95191.56;;;0.88;96.86
68179;BME280;69812;42.632;23.440;2023-10-19T02:28:56;95181.16;;;0.77;97.31
68179;BME280;69812;42.632;23.440;2023-10-19T02:31:22;95205.41;;;0.81;97.05
68179;BME280;69812;42.632;23.440;2023-10-19T02:33:51;95204.59;;;0.80;97.10
68179;BME280;69812;42.632;23.440;2023-10-19T02:36:17;95203.97;;;0.75;97.37
68179;BME280;69812;42.632;23.440;2023-10-19T02:38:47;95197.06;;;0.79;97.47
68179;BME280;69812;42.632;23.440;2023-10-19T02:41:18;95200.41;;;0.79;97.23
68179;BME280;69812;42.632;23.440;2023-10-19T02:43:47;95192.91;;;0.78;97.70
68179;BME280;69812;42.632;23.440;2023-10-19T02:46:36;95190.78;;;0.88;98.15
68179;BME280;69812;42.632;23.440;2023-10-19T02:49:08;95178.94;;;0.88;98.35
68179;BME280;69812;42.632;23.440;2023-10-19T02:51:37;95183.88;;;0.91;98.49
68179;BME280;69812;42.632;23.440;2023-10-19T02:54:04;95189.88;;;0.89;98.28
68179;BME280;69812;42.632;23.440;2023-10-19T02:56:31;95187.03;;;0.95;98.25
68179;BME280;69812;42.632;23.440;2023-10-19T02:58:56;95197.84;;;0.98;98.78
68179;BME280;69812;42.632;23.440;2023-10-19T03:01:29;95194.47;;;0.80;98.36
68179;BME280;69812;42.632;23.440;2023-10-19T03:03:57;95200.78;;;0.72;97.88
68179;BME280;69812;42.632;23.440;2023-10-19T03:06:26;95191.09;;;0.63;97.76
68179;BME280;69812;42.632;23.440;2023-10-19T03:08:56;95194.06;;;0.53;97.16
68179;BME280;69812;42.632;23.440;2023-10-19T03:11:30;95191.59;;;0.52;97.15
68179;BME280;69812;42.632;23.440;2023-10-19T03:13:58;95169.78;;;0.51;97.03
68179;BME280;69812;42.632;23.440;2023-10-19T03:16:23;95183.22;;;0.69;97.37
68179;BME280;69812;42.632;23.440;2023-10-19T03:18:49;95180.78;;;0.67;97.38
68179;BME280;69812;42.632;23.440;2023-10-19T03:21:18;95182.91;;;0.94;97.90
68179;BME280;69812;42.632;23.440;2023-10-19T03:23:52;95176.13;;;1.12;98.61
68179;BME280;69812;42.632;23.440;2023-10-19T03:26:17;95165.47;;;1.22;99.56
68179;BME280;69812;42.632;23.440;2023-10-19T03:28:43;95190.59;;;1.43;100.00
68179;BME280;69812;42.632;23.440;2023-10-19T03:31:10;95181.97;;;1.47;100.00
68179;BME280;69812;42.632;23.440;2023-10-19T03:33:45;95186.88;;;1.50;100.00
68179;BME280;69812;42.632;23.440;2023-10-19T03:36:15;95183.22;;;1.38;100.00
68179;BME280;69812;42.632;23.440;2023-10-19T03:38:40;95177.09;;;1.27;100.00
68179;BME280;69812;42.632;23.440;2023-10-19T03:41:06;95172.63;;;1.14;100.00
68179;BME280;69812;42.632;23.440;2023-10-19T03:43:33;95164.97;;;0.98;100.00
68179;BME280;69812;42.632;23.440;2023-10-19T03:46:02;95175.22;;;0.95;100.00
68179;BME280;69812;42.632;23.440;2023-10-19T03:48:35;95166.81;;;0.95;99.75
68179;BME280;69812;42.632;23.440;2023-10-19T03:51:03;95164.06;;;0.99;99.52
68179;BME280;69812;42.632;23.440;2023-10-19T03:53:30;95170.41;;;0.91;99.22
68179;BME280;69812;42.632;23.440;2023-10-19T03:55:57;95168.31;;;0.81;99.30
68179;BME280;69812;42.632;23.440;2023-10-19T03:58:22;95177.69;;;0.79;99.15
68179;BME280;69812;42.632;23.440;2023-10-19T04:00:48;95158.72;;;0.71;98.85
68179;BME280;69812;42.632;23.440;2023-10-19T04:03:16;95162.97;;;0.70;98.74
68179;BME280;69812;42.632;23.440;2023-10-19T04:05:49;95149.00;;;0.63;99.05
68179;BME280;69812;42.632;23.440;2023-10-19T04:08:16;95157.69;;;0.75;98.55
68179;BME280;69812;42.632;23.440;2023-10-19T04:10:46;95164.06;;;0.82;98.58
68179;BME280;69812;42.632;23.440;2023-10-19T04:13:31;95167.56;;;0.79;98.80
68179;BME280;69812;42.632;23.440;2023-10-19T04:15:57;95164.00;;;0.66;98.59
68179;BME280;69812;42.632;23.440;2023-10-19T04:18:22;95164.22;;;0.79;99.47
68179;BME280;69812;42.632;23.440;2023-10-19T04:20:50;95172.09;;;0.73;99.44
68179;BME280;69812;42.632;23.440;2023-10-19T04:23:19;95163.72;;;0.72;100.00
68179;BME280;69812;42.632;23.440;2023-10-19T04:25:46;95160.16;;;0.76;100.00
68179;BME280;69812;42.632;23.440;2023-10-19T04:28:11;95168.25;;;0.83;100.00
68179;BME280;69812;42.632;23.440;2023-10-19T04:30:39;95158.78;;;0.69;100.00
68179;BME280;69812;42.632;23.440;2023-10-19T04:33:04;95171.94;;;0.76;100.00
68179;BME280;69812;42.632;23.440;2023-10-19T04:35:35;95155.31;;;0.72;100.00
68179;BME280;69812;42.632;23.440;2023-10-19T04:38:00;95153.53;;;0.74;100.00
68179;BME280;69812;42.632;23.440;2023-10-19T04:40:29;95167.72;;;0.76;100.00
68179;BME280;69812;42.632;23.440;2023-10-19T04:42:55;95158.16;;;0.83;100.00
68179;BME280;69812;42.632;23.440;2023-10-19T04:45:23;95147.28;;;0.81;100.00
68179;BME280;69812;42.632;23.440;2023-10-19T04:47:52;95143.97;;;0.80;100.00
68179;BME280;69812;42.632;23.440;2023-10-19T04:50:18;95156.94;;;1.08;100.00
68179;BME280;69812;42.632;23.440;2023-10-19T04:52:43;95153.66;;;1.06;100.00
68179;BME280;69812;42.632;23.440;2023-10-19T04:55:08;95147.88;;;1.03;100.00
68179;BME280;69812;42.632;23.440;2023-10-19T04:57:34;95151.16;;;1.06;100.00
68179;BME280;69812;42.632;23.440;2023-10-19T05:00:03;95145.50;;;1.00;100.00
68179;BME280;69812;42.632;23.440;2023-10-19T05:02:28;95146.75;;;1.09;100.00
68179;BME280;69812;42.632;23.440;2023-10-19T05:04:55;95147.41;;;1.30;100.00
68179;BME280;69812;42.632;23.440;2023-10-19T05:07:20;95139.09;;;1.61;100.00
68179;BME280;69812;42.632;23.440;2023-10-19T05:09:46;95150.97;;;1.43;100.00
68179;BME280;69812;42.632;23.440;2023-10-19T05:12:13;95143.53;;;1.23;100.00
68179;BME280;69812;42.632;23.440;2023-10-19T05:14:40;95154.94;;;1.65;100.00
68179;BME280;69812;42.632;23.440;2023-10-19T05:17:06;95145.91;;;2.24;100.00
68179;BME280;69812;42.632;23.440;2023-10-19T05:19:35;95154.25;;;2.73;100.00
68179;BME280;69812;42.632;23.440;2023-10-19T05:22:02;95161.25;;;2.83;100.00
68179;BME280;69812;42.632;23.440;2023-10-19T05:24:28;95162.75;;;3.32;100.00
68179;BME280;69812;42.632;23.440;2023-10-19T05:26:55;95155.00;;;4.20;100.00
68179;BME280;69812;42.632;23.440;2023-10-19T05:29:21;95148.50;;;5.10;100.00
68179;BME280;69812;42.632;23.440;2023-10-19T05:31:47;95167.38;;;5.97;100.00
68179;BME280;69812;42.632;23.440;2023-10-19T05:34:12;95161.88;;;6.88;100.00
68179;BME280;69812;42.632;23.440;2023-10-19T05:36:38;95151.13;;;7.43;96.82
68179;BME280;69812;42.632;23.440;2023-10-19T05:39:04;95163.63;;;7.34;85.42
68179;BME280;69812;42.632;23.440;2023-10-19T05:41:33;95157.28;;;7.63;79.26
68179;BME280;69812;42.632;23.440;2023-10-19T05:43:59;95153.38;;;7.92;81.08
68179;BME280;69812;42.632;23.440;2023-10-19T05:46:24;95167.75;;;7.82;76.41
68179;BME280;69812;42.632;23.440;2023-10-19T05:48:50;95167.41;;;8.20;80.35
68179;BME280;69812;42.632;23.440;2023-10-19T05:51:16;95160.97;;;8.92;77.36
68179;BME280;69812;42.632;23.440;2023-10-19T05:53:42;95155.91;;;9.13;76.20
68179;BME280;69812;42.632;23.440;2023-10-19T05:56:09;95179.81;;;8.91;75.52
68179;BME280;69812;42.632;23.440;2023-10-19T05:58:35;95174.03;;;9.94;75.77
68179;BME280;69812;42.632;23.440;2023-10-19T06:01:01;95173.72;;;10.68;71.12
68179;BME280;69812;42.632;23.440;2023-10-19T06:03:26;95168.16;;;11.70;68.23
68179;BME280;69812;42.632;23.440;2023-10-19T06:05:52;95161.16;;;12.38;64.15
68179;BME280;69812;42.632;23.440;2023-10-19T06:08:21;95162.06;;;13.10;62.36
68179;BME280;69812;42.632;23.440;2023-10-19T06:10:53;95170.34;;;12.86;60.59
68179;BME280;69812;42.632;23.440;2023-10-19T06:13:19;95174.88;;;12.28;63.77
68179;BME280;69812;42.632;23.440;2023-10-19T06:15:45;95171.81;;;11.68;66.04
68179;BME280;69812;42.632;23.440;2023-10-19T06:18:11;95177.09;;;11.66;67.32
68179;BME280;69812;42.632;23.440;2023-10-19T06:20:43;95169.47;;;11.94;68.52
68179;BME280;69812;42.632;23.440;2023-10-19T06:23:09;95169.31;;;12.33;65.57
68179;BME280;69812;42.632;23.440;2023-10-19T06:25:37;95161.31;;;12.08;66.88
68179;BME280;69812;42.632;23.440;2023-10-19T06:28:03;95163.91;;;11.22;69.24
68179;BME280;69812;42.632;23.440;2023-10-19T06:30:29;95171.19;;;11.27;66.96
68179;BME280;69812;42.632;23.440;2023-10-19T06:32:57;95169.81;;;11.52;67.83
68179;BME280;69812;42.632;23.440;2023-10-19T06:35:25;95173.38;;;11.22;68.75
68179;BME280;69812;42.632;23.440;2023-10-19T06:37:52;95167.06;;;10.46;70.71
68179;BME280;69812;42.632;23.440;2023-10-19T06:40:18;95164.28;;;11.08;69.34
68179;BME280;69812;42.632;23.440;2023-10-19T06:42:44;95168.09;;;11.04;69.65
68179;BME280;69812;42.632;23.440;2023-10-19T06:45:13;95158.75;;;10.83;70.47
68179;BME280;69812;42.632;23.440;2023-10-19T06:47:44;95162.28;;;10.92;70.16
68179;BME280;69812;42.632;23.440;2023-10-19T06:50:14;95151.19;;;11.01;69.40
68179;BME280;69812;42.632;23.440;2023-10-19T06:52:44;95151.84;;;11.23;69.69
68179;BME280;69812;42.632;23.440;2023-10-19T06:55:12;95160.94;;;10.98;68.47
68179;BME280;69812;42.632;23.440;2023-10-19T06:57:53;95167.59;;;10.31;70.76
68179;BME280;69812;42.632;23.440;2023-10-19T07:00:22;95166.84;;;10.69;68.68
68179;BME280;69812;42.632;23.440;2023-10-19T07:02:49;95169.53;;;10.58;71.13
68179;BME280;69812;42.632;23.440;2023-10-19T07:05:18;95171.06;;;10.89;71.76
68179;BME280;69812;42.632;23.440;2023-10-19T07:07:47;95154.00;;;11.27;66.87
68179;BME280;69812;42.632;23.440;2023-10-19T07:10:14;95156.22;;;10.93;68.52
68179;BME280;69812;42.632;23.440;2023-10-19T07:12:42;95137.69;;;11.76;65.39
68179;BME280;69812;42.632;23.440;2023-10-19T07:15:08;95136.06;;;12.22;63.78
68179;BME280;69812;42.632;23.440;2023-10-19T07:17:39;95141.47;;;12.19;62.98
68179;BME280;69812;42.632;23.440;2023-10-19T07:20:06;95130.56;;;12.07;65.08
68179;BME280;69812;42.632;23.440;2023-10-19T07:22:35;95128.09;;;12.97;63.18
68179;BME280;69812;42.632;23.440;2023-10-19T07:25:05;95128.97;;;13.23;61.84
68179;BME280;69812;42.632;23.440;2023-10-19T07:27:32;95127.31;;;12.78;62.36
68179;BME280;69812;42.632;23.440;2023-10-19T07:29:59;95148.75;;;11.29;68.23
68179;BME280;69812;42.632;23.440;2023-10-19T07:32:24;95144.56;;;11.85;66.68
68179;BME280;69812;42.632;23.440;2023-10-19T07:34:50;95132.94;;;12.64;62.89
68179;BME280;69812;42.632;23.440;2023-10-19T07:37:15;95119.50;;;13.06;62.21
68179;BME280;69812;42.632;23.440;2023-10-19T07:39:49;95129.78;;;12.88;61.95
68179;BME280;69812;42.632;23.440;2023-10-19T07:42:17;95144.44;;;13.67;59.81
68179;BME280;69812;42.632;23.440;2023-10-19T07:44:43;95140.88;;;14.21;58.12
68179;BME280;69812;42.632;23.440;2023-10-19T07:47:11;95140.88;;;14.29;60.65
68179;BME280;69812;42.632;23.440;2023-10-19T07:49:37;95147.31;;;14.67;58.67
68179;BME280;69812;42.632;23.440;2023-10-19T07:52:06;95144.28;;;14.29;59.92
68179;BME280;69812;42.632;23.440;2023-10-19T07:54:35;95150.56;;;14.69;57.84
68179;BME280;69812;42.632;23.440;2023-10-19T07:57:03;95146.84;;;14.72;56.90
68179;BME280;69812;42.632;23.440;2023-10-19T07:59:35;95152.72;;;13.79;58.85
68179;BME280;69812;42.632;23.440;2023-10-19T08:02:01;95141.53;;;13.62;59.28
68179;BME280;69812;42.632;23.440;2023-10-19T08:04:30;95139.28;;;13.93;57.88
68179;BME280;69812;42.632;23.440;2023-10-19T08:06:56;95139.03;;;14.47;55.97
68179;BME280;69812;42.632;23.440;2023-10-19T08:09:22;95137.69;;;14.35;57.11
68179;BME280;69812;42.632;23.440;2023-10-19T08:11:51;95153.81;;;14.37;56.70
68179;BME280;69812;42.632;23.440;2023-10-19T08:14:22;95150.63;;;12.94;59.61
68179;BME280;69812;42.632;23.440;2023-10-19T08:16:49;95159.97;;;13.31;60.23
68179;BME280;69812;42.632;23.440;2023-10-19T08:19:14;95152.25;;;13.31;60.38
68179;BME280;69812;42.632;23.440;2023-10-19T08:21:40;95157.84;;;13.45;60.90
68179;BME280;69812;42.632;23.440;2023-10-19T08:24:06;95142.09;;;13.30;61.24
68179;BME280;69812;42.632;23.440;2023-10-19T08:26:31;95152.19;;;13.23;59.59
68179;BME280;69812;42.632;23.440;2023-10-19T08:28:57;95131.81;;;13.30;61.05
68179;BME280;69812;42.632;23.440;2023-10-19T08:31:27;95144.66;;;13.48;60.08
68179;BME280;69812;42.632;23.440;2023-10-19T08:33:53;95147.75;;;13.33;60.50
68179;BME280;69812;42.632;23.440;2023-10-19T08:36:20;95144.34;;;13.51;59.60
68179;BME280;69812;42.632;23.440;2023-10-19T08:38:46;95145.13;;;13.69;60.34
68179;BME280;69812;42.632;23.440;2023-10-19T08:41:13;95152.34;;;13.66;59.57
68179;BME280;69812;42.632;23.440;2023-10-19T08:43:39;95137.38;;;13.69;59.84
68179;BME280;69812;42.632;23.440;2023-10-19T08:46:06;95148.44;;;13.62;60.03
68179;BME280;69812;42.632;23.440;2023-10-19T08:48:35;95148.50;;;13.70;59.13
68179;BME280;69812;42.632;23.440;2023-10-19T08:51:03;95146.88;;;13.43;59.26
68179;BME280;69812;42.632;23.440;2023-10-19T08:53:36;95147.19;;;13.04;60.42
68179;BME280;69812;42.632;23.440;2023-10-19T08:56:05;95145.31;;;13.50;61.39
68179;BME280;69812;42.632;23.440;2023-10-19T08:58:32;95145.06;;;13.61;60.28
68179;BME280;69812;42.632;23.440;2023-10-19T09:00:57;95148.09;;;13.56;59.85
68179;BME280;69812;42.632;23.440;2023-10-19T09:03:24;95139.81;;;13.45;60.71
68179;BME280;69812;42.632;23.440;2023-10-19T09:05:52;95151.94;;;13.52;60.41
68179;BME280;69812;42.632;23.440;2023-10-19T09:08:18;95142.13;;;13.56;59.27
68179;BME280;69812;42.632;23.440;2023-10-19T09:10:45;95145.59;;;13.99;59.18
68179;BME280;69812;42.632;23.440;2023-10-19T09:13:11;95140.63;;;14.48;57.02
68179;BME280;69812;42.632;23.440;2023-10-19T09:15:39;95127.22;;;14.53;57.48
68179;BME280;69812;42.632;23.440;2023-10-19T09:18:17;95131.53;;;14.70;56.66
68179;BME280;69812;42.632;23.440;2023-10-19T09:20:46;95121.72;;;15.15;55.96
68179;BME280;69812;42.632;23.440;2023-10-19T09:23:24;95111.03;;;15.34;54.65
68179;BME280;69812;42.632;23.440;2023-10-19T09:25:51;95122.22;;;15.27;54.94
68179;BME280;69812;42.632;23.440;2023-10-19T09:28:22;95121.88;;;15.30;53.25
68179;BME280;69812;42.632;23.440;2023-10-19T09:30:49;95118.78;;;15.43;54.02
68179;BME280;69812;42.632;23.440;2023-10-19T09:33:16;95105.50;;;15.62;53.05
68179;BME280;69812;42.632;23.440;2023-10-19T09:35:45;95107.44;;;15.68;54.32
68179;BME280;69812;42.632;23.440;2023-10-19T09:38:16;95097.56;;;15.80;52.24
68179;BME280;69812;42.632;23.440;2023-10-19T09:40:50;95088.56;;;15.43;53.50
68179;BME280;69812;42.632;23.440;2023-10-19T09:43:21;95078.09;;;14.79;54.92
68179;BME280;69812;42.632;23.440;2023-10-19T09:45:51;95056.59;;;15.19;54.04
68179;BME280;69812;42.632;23.440;2023-10-19T09:48:19;95057.69;;;15.41;53.12
68179;BME280;69812;42.632;23.440;2023-10-19T09:50:51;95055.44;;;15.38;53.63
68179;BME280;69812;42.632;23.440;2023-10-19T09:53:30;95050.63;;;15.03;55.39
68179;BME280;69812;42.632;23.440;2023-10-19T09:55:57;95056.75;;;14.85;55.07
68179;BME280;69812;42.632;23.440;2023-10-19T09:58:27;95046.75;;;14.66;56.03
68179;BME280;69812;42.632;23.440;2023-10-19T10:00:55;95055.06;;;14.35;57.30
68179;BME280;69812;42.632;23.440;2023-10-19T10:06:08;95049.81;;;14.94;57.53
68179;BME280;69812;42.632;23.440;2023-10-19T10:08:35;95049.81;;;14.94;56.84
68179;BME280;69812;42.632;23.440;2023-10-19T10:11:19;95038.34;;;15.13;55.92
68179;BME280;69812;42.632;23.440;2023-10-19T10:13:45;95029.63;;;15.70;54.57
68179;BME280;69812;42.632;23.440;2023-10-19T10:16:14;95034.94;;;15.20;56.64
68179;BME280;69812;42.632;23.440;2023-10-19T10:18:42;95025.25;;;14.98;56.59
68179;BME280;69812;42.632;23.440;2023-10-19T10:21:23;95027.22;;;14.88;56.90
68179;BME280;69812;42.632;23.440;2023-10-19T10:23:59;95028.16;;;15.19;56.42
68179;BME280;69812;42.632;23.440;2023-10-19T10:26:26;95019.22;;;15.47;55.97
68179;BME280;69812;42.632;23.440;2023-10-19T10:29:21;95015.06;;;16.16;55.23
68179;BME280;69812;42.632;23.440;2023-10-19T10:31:48;95013.72;;;16.75;53.37
68179;BME280;69812;42.632;23.440;2023-10-19T10:37:12;94998.22;;;16.67;52.54
68179;BME280;69812;42.632;23.440;2023-10-19T10:39:39;94998.16;;;15.58;55.26
68179;BME280;69812;42.632;23.440;2023-10-19T10:42:10;95002.03;;;16.01;54.95
68179;BME280;69812;42.632;23.440;2023-10-19T10:47:19;94997.78;;;16.09;55.04
68179;BME280;69812;42.632;23.440;2023-10-19T10:49:59;94982.41;;;16.38;54.52
68179;BME280;69812;42.632;23.440;2023-10-19T10:54:51;94962.59;;;17.36;51.49
68179;BME280;69812;42.632;23.440;2023-10-19T10:57:18;94973.50;;;17.61;50.65
68179;BME280;69812;42.632;23.440;2023-10-19T10:59:45;94957.31;;;17.44;51.53
68179;BME280;69812;42.632;23.440;2023-10-19T11:02:19;94950.63;;;17.35;51.35
68179;BME280;69812;42.632;23.440;2023-10-19T11:04:46;94956.28;;;17.24;51.33
68179;BME280;69812;42.632;23.440;2023-10-19T11:07:18;94949.19;;;17.18;51.21
68179;BME280;69812;42.632;23.440;2023-10-19T11:09:47;94958.56;;;17.19;51.77
68179;BME280;69812;42.632;23.440;2023-10-19T11:12:14;94936.56;;;17.00;51.91
68179;BME280;69812;42.632;23.440;2023-10-19T11:17:18;94921.22;;;16.75;52.89
68179;BME280;69812;42.632;23.440;2023-10-19T11:19:44;94918.19;;;16.11;53.30
68179;BME280;69812;42.632;23.440;2023-10-19T11:22:10;94916.09;;;16.06;53.87
68179;BME280;69812;42.632;23.440;2023-10-19T11:24:35;94912.31;;;16.40;53.49
68179;BME280;69812;42.632;23.440;2023-10-19T11:27:08;94899.50;;;16.61;53.75
68179;BME280;69812;42.632;23.440;2023-10-19T11:29:35;94907.19;;;16.70;52.93
68179;BME280;69812;42.632;23.440;2023-10-19T11:32:00;94906.19;;;16.56;52.75
68179;BME280;69812;42.632;23.440;2023-10-19T11:34:30;94900.31;;;16.77;53.33
68179;BME280;69812;42.632;23.440;2023-10-19T11:36:59;94893.41;;;16.92;52.37
68179;BME280;69812;42.632;23.440;2023-10-19T11:39:28;94888.66;;;17.11;52.46
68179;BME280;69812;42.632;23.440;2023-10-19T11:41:54;94889.00;;;17.08;50.41
68179;BME280;69812;42.632;23.440;2023-10-19T11:44:22;94888.56;;;17.19;50.73
68179;BME280;69812;42.632;23.440;2023-10-19T11:46:47;94889.38;;;17.04;51.15
68179;BME280;69812;42.632;23.440;2023-10-19T11:49:13;94872.91;;;17.27;50.94
68179;BME280;69812;42.632;23.440;2023-10-19T11:51:39;94866.94;;;17.27;49.78
68179;BME280;69812;42.632;23.440;2023-10-19T11:54:05;94878.88;;;17.28;50.17
68179;BME280;69812;42.632;23.440;2023-10-19T11:56:31;94864.03;;;17.21;50.41
68179;BME280;69812;42.632;23.440;2023-10-19T11:58:57;94862.00;;;17.32;49.91
68179;BME280;69812;42.632;23.440;2023-10-19T12:01:22;94866.06;;;17.41;50.24
68179;BME280;69812;42.632;23.440;2023-10-19T12:23:43;94845.59;;;17.82;49.82
68179;BME280;69812;42.632;23.440;2023-10-19T12:26:09;94855.84;;;18.12;47.50
68179;BME280;69812;42.632;23.440;2023-10-19T12:28:40;94855.69;;;17.92;48.29
68179;BME280;69812;42.632;23.440;2023-10-19T12:31:07;94843.69;;;17.91;48.70
68179;BME280;69812;42.632;23.440;2023-10-19T12:33:36;94839.66;;;17.89;48.38
68179;BME280;69812;42.632;23.440;2023-10-19T12:36:05;94838.28;;;18.14;47.95
68179;BME280;69812;42.632;23.440;2023-10-19T12:38:50;94840.50;;;17.89;47.90
68179;BME280;69812;42.632;23.440;2023-10-19T12:41:16;94827.50;;;17.89;47.73
68179;BME280;69812;42.632;23.440;2023-10-19T12:43:43;94833.97;;;18.00;47.60
68179;BME280;69812;42.632;23.440;2023-10-19T12:46:09;94818.25;;;18.08;47.72
68179;BME280;69812;42.632;23.440;2023-10-19T12:48:34;94821.25;;;18.05;48.01
68179;BME280;69812;42.632;23.440;2023-10-19T12:51:01;94818.19;;;18.23;47.05
68179;BME280;69812;42.632;23.440;2023-10-19T12:53:27;94820.09;;;18.36;47.02
68179;BME280;69812;42.632;23.440;2023-10-19T12:55:52;94810.13;;;18.39;47.56
68179;BME280;69812;42.632;23.440;2023-10-19T12:58:18;94815.78;;;18.50;46.47
68179;BME280;69812;42.632;23.440;2023-10-19T13:00:48;94812.25;;;18.29;45.92
68179;BME280;69812;42.632;23.440;2023-10-19T13:03:14;94814.44;;;17.82;47.55
68179;BME280;69812;42.632;23.440;2023-10-19T13:05:42;94811.72;;;17.91;48.02
68179;BME280;69812;42.632;23.440;2023-10-19T13:08:11;94806.94;;;18.16;47.58
68179;BME280;69812;42.632;23.440;2023-10-19T13:10:41;94800.44;;;18.26;47.87
68179;BME280;69812;42.632;23.440;2023-10-19T13:13:11;94803.56;;;18.43;46.89
68179;BME280;69812;42.632;23.440;2023-10-19T13:15:38;94799.34;;;18.42;46.50
68179;BME280;69812;42.632;23.440;2023-10-19T13:18:05;94804.88;;;18.33;47.33
68179;BME280;69812;42.632;23.440;2023-10-19T13:20:34;94807.28;;;18.34;46.79
68179;BME280;69812;42.632;23.440;2023-10-19T13:23:07;94793.72;;;18.39;46.38
68179;BME280;69812;42.632;23.440;2023-10-19T13:25:37;94788.84;;;18.57;46.84
68179;BME280;69812;42.632;23.440;2023-10-19T13:28:19;94780.03;;;18.23;46.99
68179;BME280;69812;42.632;23.440;2023-10-19T13:30:51;94778.13;;;18.39;46.76
68179;BME280;69812;42.632;23.440;2023-10-19T13:33:18;94780.53;;;18.40;45.95